createdAt,value
2019-02-22T00:02:01.796Z,92512.38
2019-02-22T00:04:54.787Z,92510.19
2019-02-22T00:07:44.108Z,92509.59
2019-02-22T00:10:33.943Z,92510.81
2019-02-22T00:13:23.485Z,92505.16
2019-02-22T00:16:16.234Z,92499.90
2019-02-22T00:19:05.533Z,92491.25
2019-02-22T00:21:57.314Z,92491.14
2019-02-22T00:24:46.755Z,92481.68
2019-02-22T00:27:36.332Z,92490.45
2019-02-22T00:30:25.783Z,92478.82
2019-02-22T00:33:15.278Z,92481.55
2019-02-22T00:36:04.689Z,92474.23
2019-02-22T00:38:53.977Z,92474.20
2019-02-22T00:41:44.023Z,92469.11
2019-02-22T00:44:33.671Z,92464.36
2019-02-22T00:47:26.575Z,92474.19
2019-02-22T00:50:16.120Z,92461.58
2019-02-22T00:53:05.817Z,92456.80
2019-02-22T00:55:55.686Z,92457.64
2019-02-22T00:58:45.247Z,92449.05
2019-02-22T01:01:34.365Z,92446.55
2019-02-22T01:04:24.545Z,92443.55
2019-02-22T01:07:14.751Z,92438.72
2019-02-22T01:10:04.757Z,92440.30
2019-02-22T01:12:54.373Z,92433.95
2019-02-22T01:15:43.152Z,92432.44
2019-02-22T01:18:32.432Z,92422.96
2019-02-22T01:21:22.528Z,92431.20
2019-02-22T01:24:12.186Z,92419.11
2019-02-22T01:27:01.811Z,92418.59
2019-02-22T01:29:51.404Z,92410.73
2019-02-22T01:32:40.687Z,92400.20
2019-02-22T01:35:30.365Z,92399.64
2019-02-22T01:38:20.336Z,92399.49
2019-02-22T01:41:09.857Z,92387.79
2019-02-22T01:43:59.632Z,92383.31
2019-02-22T01:46:49.647Z,92383.45
2019-02-22T01:49:38.914Z,92370.30
2019-02-22T01:52:28.558Z,92377.75
2019-02-22T01:55:17.519Z,92379.66
2019-02-22T01:58:06.586Z,92376.03
2019-02-22T02:00:55.991Z,92376.76
2019-02-22T02:03:45.905Z,92369.91
2019-02-22T02:06:35.432Z,92366.42
2019-02-22T02:09:24.910Z,92372.95
2019-02-22T02:12:14.539Z,92357.82
2019-02-22T02:15:04.587Z,92360.74
2019-02-22T02:17:53.900Z,92353.88
2019-02-22T02:20:43.701Z,92353.67
2019-02-22T02:23:33.060Z,92359.91
2019-02-22T02:26:22.317Z,92362.64
2019-02-22T02:29:12.189Z,92364.53
2019-02-22T02:32:01.740Z,92358.98
2019-02-22T02:34:51.053Z,92356.72
2019-02-22T02:37:40.036Z,92357.23
2019-02-22T02:40:30.055Z,92361.20
2019-02-22T02:43:19.079Z,92357.00
2019-02-22T02:46:08.051Z,92360.07
2019-02-22T02:48:57.194Z,92353.28
2019-02-22T02:51:46.753Z,92346.27
2019-02-22T02:54:36.761Z,92346.34
2019-02-22T02:57:26.054Z,92338.20
2019-02-22T03:00:15.774Z,92344.23
2019-02-22T03:03:08.717Z,92342.72
2019-02-22T03:06:29.464Z,92342.62
2019-02-22T03:09:19.203Z,92343.15
2019-02-22T03:12:08.868Z,92338.50
2019-02-22T03:14:57.302Z,92334.20
2019-02-22T03:17:46.584Z,92334.42
2019-02-22T03:20:35.801Z,92329.45
2019-02-22T03:23:24.851Z,92318.55
2019-02-22T03:26:14.299Z,92326.07
2019-02-22T03:29:03.743Z,92320.61
2019-02-22T03:31:52.986Z,92319.73
2019-02-22T03:34:42.262Z,92316.32
2019-02-22T03:37:31.530Z,92317.73
2019-02-22T03:40:20.593Z,92316.04
2019-02-22T03:43:10.999Z,92319.80
2019-02-22T03:46:00.482Z,92321.67
2019-02-22T03:48:49.705Z,92311.06
2019-02-22T03:51:39.107Z,92310.00
2019-02-22T03:54:27.990Z,92316.33
2019-02-22T03:57:18.910Z,92308.44
2019-02-22T04:00:09.130Z,92294.73
2019-02-22T04:02:58.306Z,92293.38
2019-02-22T04:05:47.696Z,92292.48
2019-02-22T04:08:36.684Z,92285.40
2019-02-22T04:11:25.926Z,92281.48
2019-02-22T04:14:14.919Z,92279.84
2019-02-22T04:17:04.151Z,92273.54
2019-02-22T04:19:53.831Z,92273.34
2019-02-22T04:22:44.376Z,92268.09
2019-02-22T04:25:33.452Z,92263.09
2019-02-22T04:28:22.749Z,92261.30
2019-02-22T04:31:12.328Z,92256.03
2019-02-22T04:34:01.932Z,92260.91
2019-02-22T04:36:51.031Z,92251.66
2019-02-22T04:39:40.606Z,92247.70
2019-02-22T04:42:29.483Z,92245.56
2019-02-22T04:45:19.881Z,92241.02
2019-02-22T04:48:09.239Z,92227.45
2019-02-22T04:50:58.573Z,92230.20
2019-02-22T04:53:47.873Z,92229.02
2019-02-22T04:56:37.198Z,92217.79
2019-02-22T04:59:27.549Z,92222.69
2019-02-22T05:02:16.988Z,92216.42
2019-02-22T05:05:06.927Z,92219.00
2019-02-22T05:07:56.188Z,92215.93
2019-02-22T05:10:45.784Z,92217.17
2019-02-22T05:13:35.115Z,92210.75
2019-02-22T05:16:24.544Z,92217.10
2019-02-22T05:19:14.185Z,92219.16
2019-02-22T05:22:03.570Z,92223.23
2019-02-22T05:24:52.605Z,92209.89
2019-02-22T05:27:42.249Z,92223.58
2019-02-22T05:30:31.606Z,92222.04
2019-02-22T05:33:20.811Z,92228.17
2019-02-22T05:36:09.914Z,92219.56
2019-02-22T05:38:59.480Z,92218.66
2019-02-22T05:41:48.952Z,92218.44
2019-02-22T05:44:41.778Z,92211.86
2019-02-22T05:47:35.025Z,92217.50
2019-02-22T05:50:24.613Z,92210.64
2019-02-22T05:53:13.172Z,92200.64
2019-02-22T05:56:02.919Z,92197.05
2019-02-22T05:58:52.090Z,92192.23
2019-02-22T06:01:41.628Z,92189.77
2019-02-22T06:04:31.122Z,92186.61
2019-02-22T06:07:20.529Z,92184.24
2019-02-22T06:10:09.742Z,92186.88
2019-02-22T06:12:59.008Z,92180.40
2019-02-22T06:15:48.310Z,92181.06
2019-02-22T06:18:37.803Z,92181.04
2019-02-22T06:21:27.518Z,92184.75
2019-02-22T06:24:16.935Z,92170.30
2019-02-22T06:27:06.191Z,92172.64
2019-02-22T06:29:55.559Z,92178.88
2019-02-22T06:32:44.107Z,92174.03
2019-02-22T06:35:33.359Z,92167.05
2019-02-22T06:38:22.731Z,92172.61
2019-02-22T06:41:12.171Z,92178.22
2019-02-22T06:44:01.369Z,92181.66
2019-02-22T06:46:50.434Z,92177.03
2019-02-22T06:49:40.004Z,92171.38
2019-02-22T06:52:31.746Z,92172.48
2019-02-22T06:55:21.105Z,92174.91
2019-02-22T06:58:11.812Z,92171.61
2019-02-22T07:01:01.436Z,92172.25
2019-02-22T07:03:50.716Z,92160.70
2019-02-22T07:06:40.042Z,92150.58
2019-02-22T07:09:29.107Z,92147.54
2019-02-22T07:12:37.155Z,92142.46
2019-02-22T07:15:26.732Z,92145.64
2019-02-22T07:18:16.171Z,92141.09
2019-02-22T07:21:05.848Z,92135.68
2019-02-22T07:23:55.398Z,92133.22
2019-02-22T07:26:44.504Z,92134.45
2019-02-22T07:29:33.572Z,92132.52
2019-02-22T07:32:23.215Z,92137.70
2019-02-22T07:35:14.269Z,92123.92
2019-02-22T07:38:03.026Z,92131.70
2019-02-22T07:40:52.644Z,92134.05
2019-02-22T07:43:42.223Z,92136.59
2019-02-22T07:46:31.491Z,92125.05
2019-02-22T07:49:25.923Z,92124.78
2019-02-22T07:52:15.182Z,92118.08
2019-02-22T07:55:04.860Z,92119.00
2019-02-22T07:57:53.946Z,92117.25
2019-02-22T08:00:42.974Z,92115.46
2019-02-22T08:03:32.337Z,92117.77
2019-02-22T08:06:22.099Z,92111.73
2019-02-22T08:08:52.958Z,92106.56
2019-02-22T08:11:23.797Z,92103.46
2019-02-22T08:13:54.685Z,92099.41
2019-02-22T08:16:25.543Z,92101.64
2019-02-22T08:19:01.428Z,92094.23
2019-02-22T08:21:29.272Z,92088.50
2019-02-22T08:24:00.123Z,92083.19
2019-02-22T08:26:31.010Z,92076.83
2019-02-22T08:29:01.862Z,92072.55
2019-02-22T08:31:32.716Z,92069.56
2019-02-22T08:34:03.606Z,92069.45
2019-02-22T08:36:34.449Z,92063.56
2019-02-22T08:39:06.332Z,92067.59
2019-02-22T08:41:37.299Z,92069.03
2019-02-22T08:44:08.169Z,92060.88
2019-02-22T08:46:39.030Z,92059.80
2019-02-22T08:49:09.916Z,92056.77
2019-02-22T08:51:40.772Z,92052.03
2019-02-22T08:54:11.631Z,92058.91
2019-02-22T08:56:42.586Z,92056.98
2019-02-22T08:59:13.465Z,92050.16
2019-02-22T09:01:44.292Z,92041.81
2019-02-22T09:04:15.180Z,92036.74
2019-02-22T09:06:46.039Z,92032.80
2019-02-22T09:09:16.895Z,92028.29
2019-02-22T09:11:47.846Z,92025.69
2019-02-22T09:14:19.193Z,92024.91
2019-02-22T09:16:50.114Z,92017.31
2019-02-22T09:19:21.026Z,92017.12
2019-02-22T09:21:51.934Z,92016.31
2019-02-22T09:24:22.789Z,92013.30
2019-02-22T09:26:53.737Z,92009.12
2019-02-22T09:29:24.597Z,92008.33
2019-02-22T09:31:55.516Z,91999.77
2019-02-22T09:34:26.408Z,92009.59
2019-02-22T09:36:57.269Z,91996.42
2019-02-22T09:39:28.223Z,92004.05
2019-02-22T09:41:59.175Z,92008.77
2019-02-22T09:44:30.027Z,92006.06
2019-02-22T09:47:00.888Z,92002.42
2019-02-22T09:49:31.833Z,91997.16
2019-02-22T09:52:03.637Z,91989.38
2019-02-22T09:54:34.491Z,91985.27
2019-02-22T09:57:05.923Z,91981.03
2019-02-22T09:59:36.771Z,91978.72
2019-02-22T10:02:07.621Z,91976.50
2019-02-22T10:04:38.710Z,91974.17
2019-02-22T10:07:09.557Z,91963.41
2019-02-22T10:09:40.404Z,91961.20
2019-02-22T10:12:11.332Z,91967.77
2019-02-22T10:14:42.183Z,91953.63
2019-02-22T10:17:13.045Z,91953.19
2019-02-22T10:19:43.975Z,91951.32
2019-02-22T10:22:14.828Z,91943.13
2019-02-22T10:24:45.685Z,91943.58
2019-02-22T10:27:16.642Z,91939.58
2019-02-22T10:29:47.524Z,91928.98
2019-02-22T10:32:18.395Z,91915.12
2019-02-22T10:34:49.275Z,91918.84
2019-02-22T10:37:20.197Z,91915.55
2019-02-22T10:39:51.057Z,91905.31
2019-02-22T10:42:22.499Z,91891.20
2019-02-22T10:44:53.347Z,91886.28
2019-02-22T10:47:24.218Z,91886.66
2019-02-22T10:49:55.106Z,91879.34
2019-02-22T10:52:26.517Z,91876.34
2019-02-22T10:54:57.464Z,91866.44
2019-02-22T10:57:28.399Z,91873.16
2019-02-22T10:59:59.244Z,91864.48
2019-02-22T11:02:31.335Z,91860.45
2019-02-22T11:05:02.486Z,91861.08
2019-02-22T11:07:33.347Z,91854.95
2019-02-22T11:10:04.302Z,91845.61
2019-02-22T11:12:35.283Z,91834.67
2019-02-22T11:15:07.192Z,91836.44
2019-02-22T11:17:38.135Z,91838.20
2019-02-22T11:20:09.345Z,91832.44
2019-02-22T11:22:40.208Z,91830.30
2019-02-22T11:25:11.959Z,91826.92
2019-02-22T11:27:42.810Z,91831.09
2019-02-22T11:30:13.796Z,91814.82
2019-02-22T11:32:45.301Z,91825.52
2019-02-22T11:35:16.193Z,91812.23
2019-02-22T11:37:47.156Z,91816.72
2019-02-22T11:40:18.023Z,91816.84
2019-02-22T11:42:48.868Z,91816.94
2019-02-22T11:45:19.725Z,91810.30
2019-02-22T11:47:50.688Z,91812.88
2019-02-22T11:50:21.533Z,91808.85
2019-02-22T11:52:53.388Z,91800.10
2019-02-22T11:55:24.281Z,91790.84
2019-02-22T11:57:55.317Z,91802.72
2019-02-22T12:00:27.245Z,91794.08
2019-02-22T12:02:58.192Z,91790.30
2019-02-22T12:05:29.043Z,91785.23
2019-02-22T12:07:59.904Z,91789.26
2019-02-22T12:10:30.794Z,91778.94
2019-02-22T12:13:01.653Z,91787.70
2019-02-22T12:15:32.501Z,91773.69
2019-02-22T12:18:03.458Z,91771.13
2019-02-22T12:20:34.341Z,91771.19
2019-02-22T12:23:05.184Z,91778.41
2019-02-22T12:25:36.083Z,91778.41
2019-02-22T12:28:06.942Z,91771.05
2019-02-22T12:30:37.798Z,91769.97
2019-02-22T12:33:08.763Z,91777.35
2019-02-22T12:35:39.610Z,91763.92
2019-02-22T12:38:10.470Z,91762.22
2019-02-22T12:40:41.435Z,91757.10
2019-02-22T12:43:12.294Z,91763.55
2019-02-22T12:45:43.135Z,91753.58
2019-02-22T12:48:13.062Z,91745.84
2019-02-22T12:50:42.797Z,91736.12
2019-02-22T12:53:13.599Z,91744.92
2019-02-22T12:55:43.379Z,91745.34
2019-02-22T12:58:13.116Z,91746.68
2019-02-22T13:00:42.853Z,91743.92
2019-02-22T13:03:12.651Z,91735.35
2019-02-22T13:05:42.383Z,91724.16
2019-02-22T13:08:12.114Z,91726.38
2019-02-22T13:10:42.086Z,91724.28
2019-02-22T13:13:11.834Z,91716.73
2019-02-22T13:15:41.634Z,91723.53
2019-02-22T13:18:11.407Z,91711.14
2019-02-22T13:20:41.146Z,91717.34
2019-02-22T13:23:10.871Z,91704.99
2019-02-22T13:25:40.652Z,91716.97
2019-02-22T13:28:10.385Z,91708.83
2019-02-22T13:30:40.122Z,91708.02
2019-02-22T13:33:09.971Z,91715.97
2019-02-22T13:35:39.716Z,91704.72
2019-02-22T13:38:09.529Z,91712.05
2019-02-22T13:40:39.338Z,91705.41
2019-02-22T13:43:09.178Z,91703.59
2019-02-22T13:45:38.914Z,91699.23
2019-02-22T13:48:08.706Z,91690.95
2019-02-22T13:50:38.446Z,91690.20
2019-02-22T13:53:08.292Z,91704.16
2019-02-22T13:55:38.141Z,91698.02
2019-02-22T13:58:07.882Z,91689.06
2019-02-22T14:00:37.610Z,91698.56
2019-02-22T14:03:07.416Z,91692.78
2019-02-22T14:05:37.160Z,91692.87
2019-02-22T14:08:06.912Z,91688.53
2019-02-22T14:10:36.698Z,91688.95
2019-02-22T14:13:06.439Z,91687.27
2019-02-22T14:15:38.270Z,91683.97
2019-02-22T14:18:07.607Z,91675.70
2019-02-22T14:20:37.347Z,91683.86
2019-02-22T14:23:07.095Z,91669.28
2019-02-22T14:25:36.904Z,91668.94
2019-02-22T14:28:06.662Z,91672.70
2019-02-22T14:30:36.435Z,91678.53
2019-02-22T14:33:06.217Z,91668.66
2019-02-22T14:35:35.950Z,91676.41
2019-02-22T14:38:05.700Z,91677.70
2019-02-22T14:40:35.550Z,91680.80
2019-02-22T14:43:15.770Z,91668.33
2019-02-22T14:45:36.864Z,91669.18
2019-02-22T14:48:06.643Z,91675.66
2019-02-22T14:50:36.392Z,91669.95
2019-02-22T14:53:06.212Z,91671.13
2019-02-22T14:55:37.224Z,91669.97
2019-02-22T14:58:06.992Z,91670.91
2019-02-22T15:00:37.211Z,91653.92
2019-02-22T15:03:07.091Z,91654.08
2019-02-22T15:05:36.832Z,91659.96
2019-02-22T15:08:06.612Z,91667.64
2019-02-22T15:10:36.400Z,91668.72
2019-02-22T15:13:07.117Z,91651.84
2019-02-22T15:16:00.922Z,91663.53
2019-02-22T15:18:27.280Z,91663.43
2019-02-22T15:20:57.040Z,91661.61
2019-02-22T15:23:26.819Z,91659.70
2019-02-22T15:25:56.624Z,91663.08
2019-02-22T15:28:26.565Z,91667.44
2019-02-22T15:30:56.645Z,91663.88
2019-02-22T15:33:29.056Z,91655.72
2019-02-22T15:35:59.345Z,91661.94
2019-02-22T15:38:29.095Z,91658.01
2019-02-22T15:40:58.884Z,91663.27
2019-02-22T15:43:28.722Z,91661.58
2019-02-22T15:45:58.592Z,91659.63
2019-02-22T15:48:28.346Z,91656.97
2019-02-22T15:50:58.140Z,91658.83
2019-02-22T15:53:27.879Z,91665.22
2019-02-22T15:55:57.707Z,91665.75
2019-02-22T15:58:27.630Z,91657.26
2019-02-22T16:00:57.395Z,91666.11
2019-02-22T16:03:28.773Z,91670.11
2019-02-22T16:05:58.720Z,91664.00
2019-02-22T16:08:28.727Z,91665.77
2019-02-22T16:10:58.706Z,91664.60
2019-02-22T16:13:28.823Z,91659.53
2019-02-22T16:15:58.569Z,91664.51
2019-02-22T16:18:28.456Z,91662.20
2019-02-22T16:20:58.411Z,91661.14
2019-02-22T16:23:28.166Z,91668.61
2019-02-22T16:25:57.913Z,91666.57
2019-02-22T16:28:27.685Z,91677.75
2019-02-22T16:31:00.520Z,91681.90
2019-02-22T16:33:30.414Z,91673.89
2019-02-22T16:36:00.342Z,91680.55
2019-02-22T16:38:31.822Z,91683.02
2019-02-22T16:41:01.786Z,91685.22
2019-02-22T16:43:31.862Z,91684.58
2019-02-22T16:46:01.757Z,91682.97
2019-02-22T16:48:31.612Z,91686.89
2019-02-22T16:51:01.633Z,91682.35
2019-02-22T16:53:31.710Z,91695.42
2019-02-22T16:56:01.799Z,91694.48
2019-02-22T16:58:31.751Z,91689.06
2019-02-22T17:01:01.712Z,91694.04
2019-02-22T17:03:31.605Z,91690.85
2019-02-22T17:06:01.531Z,91697.62
2019-02-22T17:08:31.766Z,91704.45
2019-02-22T17:11:01.652Z,91698.86
2019-02-22T17:13:31.590Z,91701.01
2019-02-22T17:16:01.558Z,91698.67
2019-02-22T17:18:31.439Z,91704.38
2019-02-22T17:21:01.320Z,91703.31
2019-02-22T17:23:31.221Z,91709.88
2019-02-22T17:26:01.121Z,91704.73
2019-02-22T17:28:31.179Z,91702.34
2019-02-22T17:31:00.991Z,91716.34
2019-02-22T17:33:30.802Z,91708.78
2019-02-22T17:36:00.723Z,91711.62
2019-02-22T17:38:30.491Z,91705.58
2019-02-22T17:41:00.267Z,91708.97
2019-02-22T17:43:30.115Z,91713.02
2019-02-22T17:45:59.963Z,91705.61
2019-02-22T17:48:31.360Z,91704.39
2019-02-22T17:51:01.371Z,91702.19
2019-02-22T17:53:31.136Z,91703.86
2019-02-22T17:56:01.109Z,91700.75
2019-02-22T17:58:33.615Z,91700.30
2019-02-22T18:01:02.949Z,91704.83
2019-02-22T18:03:32.906Z,91697.78
2019-02-22T18:06:02.946Z,91698.42
2019-02-22T18:08:32.904Z,91699.48
2019-02-22T18:11:02.849Z,91701.18
2019-02-22T18:13:32.833Z,91701.27
2019-02-22T18:16:02.649Z,91700.17
2019-02-22T18:18:32.599Z,91700.17
2019-02-22T18:21:02.585Z,91697.88
2019-02-22T18:23:32.436Z,91692.99
2019-02-22T18:26:02.343Z,91699.73
2019-02-22T18:28:32.264Z,91689.38
2019-02-22T18:31:02.110Z,91681.98
2019-02-22T18:33:32.178Z,91693.34
2019-02-22T18:36:02.615Z,91687.90
2019-02-22T18:38:32.696Z,91687.90
2019-02-22T18:41:02.669Z,91687.90
2019-02-22T18:43:33.416Z,91686.57
2019-02-22T18:46:05.487Z,91688.77
2019-02-22T18:48:35.565Z,91686.45
2019-02-22T18:51:05.967Z,91688.58
2019-02-22T18:53:35.870Z,91686.88
2019-02-22T18:56:05.815Z,91690.16
2019-02-22T18:58:37.172Z,91690.49
2019-02-22T19:01:07.457Z,91695.56
2019-02-22T19:03:37.931Z,91697.62
2019-02-22T19:06:08.050Z,91696.86
2019-02-22T19:08:38.039Z,91694.97
2019-02-22T19:11:09.961Z,91699.80
2019-02-22T19:13:40.159Z,91693.62
2019-02-22T19:16:10.328Z,91697.08
2019-02-22T19:18:40.677Z,91703.51
2019-02-22T19:21:10.762Z,91703.41
2019-02-22T19:23:42.264Z,91705.30
2019-02-22T19:26:12.493Z,91704.84
2019-02-22T19:28:42.870Z,91707.53
2019-02-22T19:31:13.948Z,91709.50
2019-02-22T19:33:43.992Z,91712.53
2019-02-22T19:36:14.070Z,91709.59
2019-02-22T19:38:44.126Z,91703.23
2019-02-22T19:41:14.476Z,91702.55
2019-02-22T19:43:44.411Z,91705.73
2019-02-22T19:46:17.346Z,91707.87
2019-02-22T19:48:48.045Z,91709.70
2019-02-22T19:51:18.420Z,91703.13
2019-02-22T19:53:48.805Z,91709.73
2019-02-22T19:56:19.329Z,91709.60
2019-02-22T19:58:50.707Z,91705.09
2019-02-22T20:01:21.246Z,91710.77
2019-02-22T20:03:51.163Z,91708.50
2019-02-22T20:06:21.238Z,91712.92
2019-02-22T20:08:51.342Z,91701.90
2019-02-22T20:11:21.388Z,91701.11
2019-02-22T20:13:51.355Z,91692.84
2019-02-22T20:16:21.220Z,91688.66
2019-02-22T20:18:50.963Z,91682.79
2019-02-22T20:21:20.739Z,91681.69
2019-02-22T20:23:50.540Z,91679.47
2019-02-22T20:26:20.300Z,91681.22
2019-02-22T20:28:50.115Z,91689.62
2019-02-22T20:31:20.727Z,91682.84
2019-02-22T20:33:50.798Z,91675.39
2019-02-22T20:36:27.966Z,91680.18
2019-02-22T20:38:51.945Z,91681.65
2019-02-22T20:41:21.789Z,91678.80
2019-02-22T20:43:51.642Z,91680.98
2019-02-22T20:46:21.929Z,91685.69
2019-02-22T20:49:00.495Z,91680.09
2019-02-22T20:51:23.605Z,91682.64
2019-02-22T20:53:55.395Z,91681.27
2019-02-22T20:56:25.268Z,91685.39
2019-02-22T20:59:13.519Z,91692.84
2019-02-22T21:02:02.069Z,91688.66
2019-02-22T21:04:50.628Z,91683.13
2019-02-22T21:07:38.586Z,91676.61
2019-02-22T21:10:27.196Z,91672.63
2019-02-22T21:13:15.323Z,91670.14
2019-02-22T21:16:03.810Z,91677.05
2019-02-22T21:18:51.973Z,91674.53
2019-02-22T21:21:40.614Z,91682.02
2019-02-22T21:24:29.180Z,91680.70
2019-02-22T21:27:17.628Z,91688.58
2019-02-22T21:30:06.260Z,91689.71
2019-02-22T21:32:54.738Z,91689.81
2019-02-22T21:35:43.350Z,91684.21
2019-02-22T21:38:31.167Z,91687.44
2019-02-22T21:41:19.102Z,91691.99
2019-02-22T21:44:07.104Z,91694.31
2019-02-22T21:46:55.677Z,91692.27
2019-02-22T21:49:43.431Z,91697.11
2019-02-22T21:52:31.124Z,91693.88
2019-02-22T21:55:19.561Z,91694.27
2019-02-22T21:58:07.994Z,91695.92
2019-02-22T22:01:11.830Z,91695.22
2019-02-22T22:04:00.167Z,91692.98
2019-02-22T22:06:47.668Z,91686.20
2019-02-22T22:09:35.691Z,91690.33
2019-02-22T22:12:24.230Z,91687.15
2019-02-22T22:15:12.657Z,91686.00
2019-02-22T22:18:01.147Z,91689.42
2019-02-22T22:20:49.571Z,91689.23
2019-02-22T22:23:37.941Z,91686.00
2019-02-22T22:26:26.270Z,91685.77
2019-02-22T22:29:14.387Z,91682.36
2019-02-22T22:32:02.426Z,91683.97
2019-02-22T22:34:50.993Z,91681.94
2019-02-22T22:37:39.363Z,91673.20
2019-02-22T22:40:27.799Z,91672.36
2019-02-22T22:43:16.192Z,91675.09
2019-02-22T22:46:04.613Z,91675.47
2019-02-22T22:48:52.861Z,91664.80
2019-02-22T22:51:41.139Z,91668.25
2019-02-22T22:54:28.864Z,91668.32
2019-02-22T22:57:16.646Z,91668.45
2019-02-22T23:00:05.964Z,91678.61
2019-02-22T23:02:54.394Z,91678.32
2019-02-22T23:05:42.833Z,91676.23
2019-02-22T23:08:33.670Z,91680.41
2019-02-22T23:11:22.270Z,91673.97
2019-02-22T23:14:11.696Z,91677.52
2019-02-22T23:16:59.939Z,91674.34
2019-02-22T23:19:48.372Z,91686.86
2019-02-22T23:22:36.789Z,91683.92
2019-02-22T23:25:25.468Z,91682.17
2019-02-22T23:28:13.414Z,91679.61
2019-02-22T23:31:01.547Z,91681.70
2019-02-22T23:33:50.036Z,91678.08
2019-02-22T23:36:37.956Z,91678.19
2019-02-22T23:39:26.319Z,91668.84
2019-02-22T23:42:14.043Z,91669.28
2019-02-22T23:45:01.732Z,91661.83
2019-02-22T23:47:50.143Z,91666.59
2019-02-22T23:50:37.890Z,91658.03
2019-02-22T23:53:26.494Z,91662.39
2019-02-22T23:56:14.535Z,91667.31
2019-02-22T23:59:02.897Z,91663.23
